createdAt,value
2018-02-07T00:01:17.437Z,24.27
2018-02-07T00:03:44.936Z,24.67
2018-02-07T00:06:12.470Z,24.33
2018-02-07T00:08:39.965Z,24.48
2018-02-07T00:11:07.499Z,24.45
2018-02-07T00:13:35.062Z,24.33
2018-02-07T00:16:02.634Z,23.15
2018-02-07T00:18:30.162Z,23.10
2018-02-07T00:20:57.681Z,23.42
2018-02-07T00:23:25.957Z,23.02
2018-02-07T00:25:54.363Z,21.40
2018-02-07T00:28:21.934Z,24.08
2018-02-07T00:30:49.451Z,23.48
2018-02-07T00:33:16.958Z,24.33
2018-02-07T00:35:44.524Z,24.55
2018-02-07T00:38:12.146Z,24.98
2018-02-07T00:40:40.459Z,22.80
2018-02-07T00:43:08.009Z,24.65
2018-02-07T00:45:35.537Z,22.40
2018-02-07T00:48:03.806Z,22.25
2018-02-07T00:50:32.150Z,22.65
2018-02-07T00:52:59.724Z,23.70
2018-02-07T00:55:27.293Z,23.55
2018-02-07T00:57:55.621Z,24.00
2018-02-07T01:00:23.142Z,25.58
2018-02-07T01:02:50.709Z,23.62
2018-02-07T01:05:19.010Z,23.83
2018-02-07T01:07:46.539Z,22.62
2018-02-07T01:10:14.099Z,23.50
2018-02-07T01:12:42.462Z,22.60
2018-02-07T01:15:10.019Z,22.25
2018-02-07T01:17:37.542Z,24.35
2018-02-07T01:20:05.083Z,23.50
2018-02-07T01:22:32.643Z,23.35
2018-02-07T01:25:00.162Z,24.67
2018-02-07T01:27:27.762Z,23.25
2018-02-07T01:29:55.269Z,22.58
2018-02-07T01:32:22.793Z,22.17
2018-02-07T01:34:50.303Z,24.37
2018-02-07T01:37:17.873Z,24.33
2018-02-07T01:39:46.154Z,23.73
2018-02-07T01:42:13.679Z,24.35
2018-02-07T01:44:41.222Z,22.80
2018-02-07T01:47:08.810Z,24.12
2018-02-07T01:49:36.349Z,24.75
2018-02-07T01:52:03.947Z,24.50
2018-02-07T01:54:31.458Z,21.33
2018-02-07T01:56:58.974Z,23.75
2018-02-07T01:59:26.551Z,22.58
2018-02-07T02:01:54.838Z,22.25
2018-02-07T02:04:22.389Z,23.23
2018-02-07T02:06:50.678Z,23.02
2018-02-07T02:09:18.210Z,22.62
2018-02-07T02:11:45.757Z,23.98
2018-02-07T02:14:14.793Z,23.67
2018-02-07T02:16:42.325Z,23.02
2018-02-07T02:19:10.622Z,24.60
2018-02-07T02:21:38.989Z,24.45
2018-02-07T02:24:07.284Z,24.25
2018-02-07T02:26:34.792Z,23.15
2018-02-07T02:29:02.297Z,23.98
2018-02-07T02:31:29.846Z,23.83
2018-02-07T02:33:58.157Z,24.25
2018-02-07T02:36:37.561Z,22.90
2018-02-07T02:39:06.090Z,24.40
2018-02-07T02:41:33.613Z,23.20
2018-02-07T02:44:01.875Z,22.40
2018-02-07T02:46:30.184Z,23.50
2018-02-07T02:48:57.691Z,22.80
2018-02-07T02:51:25.201Z,24.20
2018-02-07T02:53:52.703Z,23.87
2018-02-07T02:56:20.221Z,25.23
2018-02-07T02:58:47.787Z,24.73
2018-02-07T03:01:15.301Z,23.38
2018-02-07T03:03:42.869Z,26.92
2018-02-07T03:06:10.431Z,25.83
2018-02-07T03:08:38.716Z,26.40
2018-02-07T03:11:06.988Z,24.37
2018-02-07T03:13:35.284Z,26.15
2018-02-07T03:16:02.801Z,26.83
2018-02-07T03:18:30.335Z,25.33
2018-02-07T03:20:57.841Z,26.83
2018-02-07T03:23:26.144Z,24.63
2018-02-07T03:25:53.653Z,24.85
2018-02-07T03:28:27.199Z,25.08
2018-02-07T03:30:55.505Z,25.52
2018-02-07T03:33:23.028Z,23.42
2018-02-07T03:35:50.558Z,25.05
2018-02-07T03:38:18.099Z,25.83
2018-02-07T03:40:45.642Z,26.10
2018-02-07T03:43:13.193Z,26.30
2018-02-07T03:45:40.719Z,25.88
2018-02-07T03:48:09.005Z,26.33
2018-02-07T03:50:36.561Z,25.50
2018-02-07T03:53:04.842Z,26.02
2018-02-07T03:55:32.362Z,26.70
2018-02-07T03:57:59.998Z,25.92
2018-02-07T04:00:27.533Z,28.02
2018-02-07T04:02:55.057Z,26.50
2018-02-07T04:05:22.571Z,27.40
2018-02-07T04:07:50.083Z,27.02
2018-02-07T04:10:17.609Z,26.70
2018-02-07T04:12:45.158Z,26.62
2018-02-07T04:15:12.654Z,26.35
2018-02-07T04:17:40.245Z,27.05
2018-02-07T04:20:07.766Z,27.27
2018-02-07T04:22:35.289Z,24.58
2018-02-07T04:25:02.813Z,25.00
2018-02-07T04:27:31.082Z,25.48
2018-02-07T04:29:58.596Z,27.02
2018-02-07T04:32:26.088Z,25.58
2018-02-07T04:34:53.598Z,26.33
2018-02-07T04:37:21.138Z,26.50
2018-02-07T04:39:48.695Z,28.55
2018-02-07T04:42:16.260Z,25.90
2018-02-07T04:44:44.554Z,24.17
2018-02-07T04:47:12.061Z,26.25
2018-02-07T04:49:39.590Z,26.98
2018-02-07T04:52:07.109Z,26.27
2018-02-07T04:54:35.433Z,26.33
2018-02-07T04:57:02.976Z,27.87
2018-02-07T04:59:30.579Z,26.30
2018-02-07T05:01:58.108Z,26.85
2018-02-07T05:04:25.619Z,25.62
2018-02-07T05:06:53.936Z,27.52
2018-02-07T05:09:21.454Z,28.05
2018-02-07T05:11:49.745Z,27.37
2018-02-07T05:14:18.093Z,25.85
2018-02-07T05:16:45.594Z,27.23
2018-02-07T05:19:13.109Z,28.77
2018-02-07T05:21:40.606Z,27.45
2018-02-07T05:24:08.179Z,27.48
2018-02-07T05:26:35.689Z,29.25
2018-02-07T05:29:03.224Z,28.83
2018-02-07T05:31:30.745Z,28.95
2018-02-07T05:33:58.541Z,27.15
2018-02-07T05:36:26.074Z,27.48
2018-02-07T05:38:53.614Z,27.00
2018-02-07T05:41:21.899Z,26.83
2018-02-07T05:43:50.193Z,29.37
2018-02-07T05:46:17.684Z,29.52
2018-02-07T05:48:45.208Z,29.45
2018-02-07T05:51:12.737Z,30.10
2018-02-07T05:53:41.033Z,29.70
2018-02-07T05:56:08.569Z,28.62
2018-02-07T05:58:36.114Z,29.90
2018-02-07T06:01:03.627Z,29.23
2018-02-07T06:03:31.156Z,29.48
2018-02-07T06:05:59.486Z,30.92
2018-02-07T06:08:27.053Z,30.45
2018-02-07T06:10:54.569Z,30.37
2018-02-07T06:13:22.879Z,31.30
2018-02-07T06:15:50.478Z,28.98
2018-02-07T06:18:18.039Z,30.67
2018-02-07T06:20:45.655Z,31.33
2018-02-07T06:23:13.178Z,31.77
2018-02-07T06:25:41.469Z,29.52
2018-02-07T06:28:09.741Z,30.88
2018-02-07T06:30:38.021Z,31.42
2018-02-07T06:33:06.378Z,31.73
2018-02-07T06:35:33.907Z,32.03
2018-02-07T06:38:01.417Z,32.35
2018-02-07T06:40:29.728Z,30.67
2018-02-07T06:42:57.276Z,31.23
2018-02-07T06:45:24.826Z,30.95
2018-02-07T06:47:52.355Z,31.70
2018-02-07T06:50:19.889Z,32.88
2018-02-07T06:52:47.429Z,31.73
2018-02-07T06:55:14.997Z,32.60
2018-02-07T06:57:42.514Z,30.65
2018-02-07T07:00:10.873Z,33.22
2018-02-07T07:02:38.397Z,31.98
2018-02-07T07:05:05.908Z,31.58
2018-02-07T07:07:34.185Z,32.65
2018-02-07T07:10:02.491Z,31.08
2018-02-07T07:12:29.989Z,31.52
2018-02-07T07:14:57.557Z,32.25
2018-02-07T07:17:25.103Z,31.87
2018-02-07T07:19:52.649Z,33.08
2018-02-07T07:22:20.143Z,34.40
2018-02-07T07:24:47.714Z,31.98
2018-02-07T07:27:16.001Z,33.85
2018-02-07T07:29:44.289Z,33.42
2018-02-07T07:32:11.939Z,33.35
2018-02-07T07:34:39.439Z,32.20
2018-02-07T07:37:06.980Z,33.10
2018-02-07T07:39:34.488Z,33.53
2018-02-07T07:42:02.002Z,31.60
2018-02-07T07:44:29.509Z,34.28
2018-02-07T07:46:57.040Z,32.05
2018-02-07T07:49:24.536Z,33.28
2018-02-07T07:51:52.045Z,30.50
2018-02-07T07:54:19.549Z,33.70
2018-02-07T07:56:47.159Z,31.65
2018-02-07T07:59:14.735Z,30.88
2018-02-07T08:01:42.293Z,30.98
2018-02-07T08:04:09.839Z,30.35
2018-02-07T08:06:38.133Z,30.65
2018-02-07T08:09:05.655Z,31.42
2018-02-07T08:11:33.185Z,32.38
2018-02-07T08:14:00.711Z,32.83
2018-02-07T08:16:28.253Z,31.52
2018-02-07T08:18:55.779Z,29.67
2018-02-07T08:21:24.086Z,30.52
2018-02-07T08:23:51.597Z,31.12
2018-02-07T08:26:19.194Z,30.52
2018-02-07T08:28:46.748Z,31.20
2018-02-07T08:31:15.037Z,29.85
2018-02-07T08:33:42.532Z,30.65
2018-02-07T08:36:10.054Z,32.55
2018-02-07T08:38:37.565Z,30.42
2018-02-07T08:41:05.113Z,31.02
2018-02-07T08:43:32.641Z,32.03
2018-02-07T08:46:00.165Z,32.03
2018-02-07T08:48:28.469Z,33.15
2018-02-07T08:50:55.997Z,32.47
2018-02-07T08:53:24.293Z,30.08
2018-02-07T08:55:51.865Z,30.05
2018-02-07T08:58:19.391Z,29.50
2018-02-07T09:00:46.894Z,30.17
2018-02-07T09:03:14.411Z,29.55
2018-02-07T09:05:41.936Z,29.80
2018-02-07T09:08:09.530Z,30.95
2018-02-07T09:10:37.062Z,31.48
2018-02-07T09:13:04.602Z,30.33
2018-02-07T09:15:32.101Z,31.03
2018-02-07T09:17:59.625Z,31.95
2018-02-07T09:20:27.179Z,31.03
2018-02-07T09:22:54.730Z,32.23
2018-02-07T09:25:22.253Z,31.33
2018-02-07T09:27:49.781Z,31.10
2018-02-07T09:30:17.297Z,29.75
2018-02-07T09:32:44.849Z,30.37
2018-02-07T09:35:12.369Z,30.73
2018-02-07T09:37:39.935Z,29.52
2018-02-07T09:40:07.473Z,29.23
2018-02-07T09:42:35.062Z,32.63
2018-02-07T09:45:02.594Z,32.80
2018-02-07T09:47:30.097Z,27.13
2018-02-07T09:49:58.369Z,29.70
2018-02-07T09:52:25.946Z,29.50
2018-02-07T09:54:54.279Z,33.58
2018-02-07T09:57:21.796Z,31.53
2018-02-07T09:59:49.346Z,30.25
2018-02-07T10:02:16.957Z,33.63
2018-02-07T10:04:44.818Z,32.70
2018-02-07T10:07:12.325Z,34.95
2018-02-07T10:09:40.622Z,34.90
2018-02-07T10:12:08.210Z,34.88
2018-02-07T10:14:35.787Z,35.85
2018-02-07T10:17:03.313Z,35.70
2018-02-07T10:19:30.832Z,36.43
2018-02-07T10:21:58.345Z,34.30
2018-02-07T10:24:25.869Z,37.42
2018-02-07T10:26:54.172Z,37.83
2018-02-07T10:29:21.697Z,37.45
2018-02-07T10:31:49.977Z,38.22
2018-02-07T10:34:18.304Z,37.15
2018-02-07T10:36:45.818Z,35.80
2018-02-07T10:39:14.111Z,35.90
2018-02-07T10:41:41.626Z,38.13
2018-02-07T10:44:09.218Z,37.00
2018-02-07T10:46:36.765Z,36.33
2018-02-07T10:49:05.049Z,36.63
2018-02-07T10:51:33.313Z,36.05
2018-02-07T10:54:01.613Z,37.60
2018-02-07T10:56:29.882Z,35.90
2018-02-07T10:58:58.153Z,34.07
2018-02-07T11:01:25.671Z,34.47
2018-02-07T11:03:53.169Z,31.73
2018-02-07T11:06:21.464Z,32.30
2018-02-07T11:08:49.042Z,33.43
2018-02-07T11:11:16.564Z,31.40
2018-02-07T11:13:44.068Z,33.43
2018-02-07T11:16:11.569Z,35.33
2018-02-07T11:18:39.154Z,35.13
2018-02-07T11:21:07.427Z,33.13
2018-02-07T11:23:35.713Z,31.57
2018-02-07T11:26:04.006Z,33.93
2018-02-07T11:28:31.518Z,32.77
2018-02-07T11:30:59.009Z,32.83
2018-02-07T11:33:27.287Z,31.10
2018-02-07T11:35:54.836Z,32.13
2018-02-07T11:38:23.133Z,33.60
2018-02-07T11:40:50.653Z,33.67
2018-02-07T11:43:18.224Z,32.50
2018-02-07T11:45:45.736Z,31.10
2018-02-07T11:48:13.265Z,32.07
2018-02-07T11:50:41.611Z,33.30
2018-02-07T11:53:09.146Z,34.23
2018-02-07T11:55:36.641Z,32.33
2018-02-07T11:58:04.230Z,32.90
2018-02-07T12:00:31.700Z,33.93
2018-02-07T12:02:59.274Z,35.37
2018-02-07T12:05:26.803Z,33.03
2018-02-07T12:07:55.088Z,33.57
2018-02-07T12:10:22.641Z,33.80
2018-02-07T12:12:50.169Z,32.23
2018-02-07T12:15:17.681Z,32.57
2018-02-07T12:17:45.196Z,31.53
2018-02-07T12:20:12.742Z,32.67
2018-02-07T12:22:40.266Z,32.90
2018-02-07T12:25:07.788Z,30.90
2018-02-07T12:27:36.056Z,32.27
2018-02-07T12:30:03.561Z,32.83
2018-02-07T12:32:31.086Z,34.17
2018-02-07T12:34:59.586Z,34.03
2018-02-07T12:37:27.077Z,35.70
2018-02-07T12:39:54.642Z,35.13
2018-02-07T12:42:22.164Z,36.87
2018-02-07T12:44:49.681Z,34.87
2018-02-07T12:47:17.178Z,34.23
2018-02-07T12:49:44.678Z,35.37
2018-02-07T12:52:12.202Z,36.93
2018-02-07T12:54:39.787Z,33.03
2018-02-07T12:57:07.293Z,35.43
2018-02-07T12:59:35.602Z,35.83
2018-02-07T13:02:03.129Z,35.43
2018-02-07T13:04:30.642Z,33.33
2018-02-07T13:06:58.189Z,34.33
2018-02-07T13:09:25.733Z,34.73
2018-02-07T13:11:53.275Z,33.97
2018-02-07T13:14:21.561Z,29.93
2018-02-07T13:16:49.829Z,35.17
2018-02-07T13:19:18.105Z,35.33
2018-02-07T13:21:46.371Z,34.80
2018-02-07T13:24:14.731Z,35.77
2018-02-07T13:26:42.274Z,33.27
2018-02-07T13:29:10.565Z,34.77
2018-02-07T13:31:38.070Z,34.57
2018-02-07T13:34:05.586Z,36.90
2018-02-07T13:36:33.093Z,39.57
2018-02-07T13:39:00.609Z,35.67
2018-02-07T13:41:28.209Z,35.10
2018-02-07T13:43:55.765Z,37.27
2018-02-07T13:46:23.333Z,35.20
2018-02-07T13:48:50.854Z,37.63
2018-02-07T13:51:18.410Z,35.70
2018-02-07T13:53:45.910Z,33.70
2018-02-07T13:56:13.494Z,34.53
2018-02-07T13:58:41.315Z,34.47
2018-02-07T14:01:08.773Z,33.70
2018-02-07T14:03:36.282Z,32.57
2018-02-07T14:06:03.802Z,33.93
2018-02-07T14:08:32.093Z,32.60
2018-02-07T14:10:59.626Z,33.57
2018-02-07T14:13:27.137Z,31.20
2018-02-07T14:15:54.646Z,30.50
2018-02-07T14:18:22.157Z,29.73
2018-02-07T14:20:49.704Z,29.63
2018-02-07T14:23:17.198Z,28.67
2018-02-07T14:25:44.726Z,30.57
2018-02-07T14:28:12.223Z,28.63
2018-02-07T14:30:39.760Z,29.00
2018-02-07T14:33:07.270Z,28.37
2018-02-07T14:35:35.540Z,28.10
2018-02-07T14:38:03.830Z,28.17
2018-02-07T14:40:31.351Z,28.67
2018-02-07T14:42:58.860Z,27.73
2018-02-07T14:45:26.354Z,26.37
2018-02-07T14:47:53.906Z,30.40
2018-02-07T14:50:21.435Z,26.53
2018-02-07T14:52:48.995Z,27.10
2018-02-07T14:55:16.558Z,39.63
2018-02-07T14:57:44.058Z,32.73
2018-02-07T15:00:11.577Z,27.50
2018-02-07T15:02:39.301Z,26.13
2018-02-07T15:05:07.585Z,25.87
2018-02-07T15:07:35.941Z,26.25
2018-02-07T15:10:03.457Z,27.27
2018-02-07T15:12:30.977Z,26.10
2018-02-07T15:14:59.259Z,25.67
2018-02-07T15:17:26.816Z,26.67
2018-02-07T15:19:54.297Z,26.27
2018-02-07T15:22:22.588Z,24.90
2018-02-07T15:24:50.143Z,25.23
2018-02-07T15:27:17.661Z,23.93
2018-02-07T15:29:45.172Z,26.33
2018-02-07T15:32:12.753Z,26.55
2018-02-07T15:34:40.258Z,26.12
2018-02-07T15:37:08.589Z,25.83
2018-02-07T15:39:36.109Z,23.67
2018-02-07T15:42:03.749Z,25.08
2018-02-07T15:44:31.333Z,24.35
2018-02-07T15:46:59.690Z,23.62
2018-02-07T15:49:27.246Z,20.95
2018-02-07T15:51:54.878Z,21.92
2018-02-07T15:54:23.154Z,21.60
2018-02-07T15:56:50.734Z,21.27
2018-02-07T15:59:18.270Z,21.48
2018-02-07T16:01:46.635Z,22.65
2018-02-07T16:04:14.185Z,22.62
2018-02-07T16:06:41.789Z,21.25
2018-02-07T16:09:09.300Z,21.08
2018-02-07T16:11:37.577Z,21.23
2018-02-07T16:14:05.852Z,21.75
2018-02-07T16:16:34.173Z,20.25
2018-02-07T16:19:01.727Z,20.50
2018-02-07T16:21:29.273Z,20.77
2018-02-07T16:23:56.787Z,22.10
2018-02-07T16:26:25.082Z,24.45
2018-02-07T16:28:52.614Z,21.83
2018-02-07T16:31:20.950Z,22.15
2018-02-07T16:33:48.466Z,21.52
2018-02-07T16:36:16.757Z,23.42
2018-02-07T16:38:45.090Z,23.83
2018-02-07T16:41:13.361Z,24.10
2018-02-07T16:43:41.674Z,25.12
2018-02-07T16:46:09.186Z,27.58
2018-02-07T16:48:36.706Z,25.73
2018-02-07T16:51:04.982Z,23.42
2018-02-07T16:53:32.549Z,24.00
2018-02-07T16:56:00.100Z,24.25
2018-02-07T16:58:28.627Z,23.27
2018-02-07T17:00:56.133Z,24.77
2018-02-07T17:03:24.498Z,25.48
2018-02-07T17:05:52.008Z,27.20
2018-02-07T17:08:19.521Z,25.67
2018-02-07T17:10:47.030Z,24.00
2018-02-07T17:13:14.568Z,24.77
2018-02-07T17:15:42.141Z,25.23
2018-02-07T17:18:09.660Z,23.75
2018-02-07T17:20:37.170Z,26.05
2018-02-07T17:23:04.697Z,24.85
2018-02-07T17:25:32.979Z,26.33
2018-02-07T17:28:01.262Z,24.33
2018-02-07T17:30:29.521Z,25.67
2018-02-07T17:32:57.801Z,25.90
2018-02-07T17:35:26.076Z,24.25
2018-02-07T17:37:54.379Z,24.05
2018-02-07T17:40:21.892Z,25.52
2018-02-07T17:42:49.426Z,25.25
2018-02-07T17:45:16.974Z,25.77
2018-02-07T17:47:44.502Z,24.92
2018-02-07T17:50:12.778Z,25.45
2018-02-07T17:52:41.067Z,25.37
2018-02-07T17:55:08.599Z,26.58
2018-02-07T17:57:36.166Z,28.02
2018-02-07T18:00:04.471Z,27.67
2018-02-07T18:02:32.005Z,26.37
2018-02-07T18:05:00.285Z,27.13
2018-02-07T18:07:28.642Z,26.02
2018-02-07T18:09:56.180Z,25.77
2018-02-07T18:12:23.741Z,27.05
2018-02-07T18:14:51.311Z,24.95
2018-02-07T18:17:18.817Z,26.00
2018-02-07T18:19:47.095Z,24.35
2018-02-07T18:22:15.377Z,26.00
2018-02-07T18:24:42.970Z,26.52
2018-02-07T18:27:10.493Z,27.23
2018-02-07T18:29:38.809Z,27.90
2018-02-07T18:32:06.363Z,25.45
2018-02-07T18:34:33.926Z,25.70
2018-02-07T18:37:01.437Z,29.80
2018-02-07T18:39:29.768Z,26.52
2018-02-07T18:41:57.304Z,27.62
2018-02-07T18:44:24.843Z,26.87
2018-02-07T18:46:53.111Z,25.27
2018-02-07T18:49:24.832Z,25.52
2018-02-07T18:51:52.353Z,28.42
2018-02-07T18:54:19.905Z,26.98
2018-02-07T18:56:47.407Z,26.40
2018-02-07T18:59:14.987Z,26.08
2018-02-07T19:01:42.493Z,25.17
2018-02-07T19:04:09.997Z,23.95
2018-02-07T19:06:37.535Z,25.70
2018-02-07T19:09:05.086Z,23.23
2018-02-07T19:11:32.650Z,23.50
2018-02-07T19:14:00.163Z,22.17
2018-02-07T19:16:28.442Z,24.12
2018-02-07T19:18:57.180Z,22.95
2018-02-07T19:21:24.710Z,23.62
2018-02-07T19:23:52.220Z,23.75
2018-02-07T19:26:19.788Z,23.05
2018-02-07T19:28:47.449Z,23.02
2018-02-07T19:31:14.987Z,24.37
2018-02-07T19:33:42.572Z,23.42
2018-02-07T19:36:10.407Z,23.52
2018-02-07T19:38:38.007Z,26.15
2018-02-07T19:41:05.504Z,24.90
2018-02-07T19:43:33.021Z,24.27
2018-02-07T19:46:00.849Z,24.42
2018-02-07T19:48:28.384Z,25.17
2018-02-07T19:50:55.919Z,26.00
2018-02-07T19:53:24.197Z,24.10
2018-02-07T19:55:51.784Z,26.67
2018-02-07T19:58:19.274Z,23.98
2018-02-07T20:00:47.030Z,26.80
2018-02-07T20:03:14.550Z,27.13
2018-02-07T20:05:42.846Z,26.30
2018-02-07T20:08:10.353Z,25.23
2018-02-07T20:10:37.949Z,24.17
2018-02-07T20:13:05.508Z,24.35
2018-02-07T20:15:33.826Z,25.88
2018-02-07T20:18:01.349Z,24.37
2018-02-07T20:20:29.697Z,25.08
2018-02-07T20:22:57.228Z,24.83
2018-02-07T20:25:24.749Z,25.48
2018-02-07T20:27:52.273Z,25.30
2018-02-07T20:30:19.879Z,24.67
2018-02-07T20:32:47.431Z,25.00
2018-02-07T20:35:15.775Z,22.67
2018-02-07T20:37:43.349Z,23.12
2018-02-07T20:40:10.938Z,22.40
2018-02-07T20:42:38.469Z,23.50
2018-02-07T20:45:05.996Z,23.15
2018-02-07T20:47:33.510Z,24.37
2018-02-07T20:50:01.801Z,24.73
2018-02-07T20:52:29.692Z,22.37
2018-02-07T20:54:57.225Z,21.83
2018-02-07T20:57:24.728Z,20.92
2018-02-07T20:59:52.336Z,26.80
2018-02-07T21:02:20.630Z,25.52
2018-02-07T21:04:48.142Z,32.28
2018-02-07T21:07:15.694Z,24.20
2018-02-07T21:09:43.258Z,24.00
2018-02-07T21:12:10.785Z,23.52
2018-02-07T21:14:38.334Z,21.23
2018-02-07T21:17:05.836Z,22.30
2018-02-07T21:19:33.361Z,24.12
2018-02-07T21:22:00.897Z,22.87
2018-02-07T21:24:28.421Z,22.70
2018-02-07T21:26:55.995Z,22.83
2018-02-07T21:29:23.497Z,39.72
2018-02-07T21:31:51.029Z,26.45
2018-02-07T21:34:18.552Z,24.73
2018-02-07T21:36:46.074Z,23.85
2018-02-07T21:39:13.579Z,28.05
2018-02-07T21:41:41.179Z,26.92
2018-02-07T21:44:08.729Z,24.58
2018-02-07T21:46:37.089Z,27.17
2018-02-07T21:49:04.602Z,25.50
2018-02-07T21:51:32.117Z,26.25
2018-02-07T21:54:00.401Z,23.85
2018-02-07T21:56:28.690Z,24.08
2018-02-07T21:58:56.232Z,25.37
2018-02-07T22:01:24.514Z,24.95
2018-02-07T22:03:52.794Z,24.50
2018-02-07T22:06:20.320Z,24.80
2018-02-07T22:08:47.846Z,25.25
2018-02-07T22:11:15.367Z,25.75
2018-02-07T22:13:43.639Z,26.95
2018-02-07T22:16:11.937Z,29.02
2018-02-07T22:18:39.450Z,32.10
2018-02-07T22:21:06.981Z,32.35
2018-02-07T22:23:34.510Z,27.50
2018-02-07T22:26:02.058Z,25.23
2018-02-07T22:28:30.327Z,26.15
2018-02-07T22:30:57.913Z,26.62
2018-02-07T22:33:25.441Z,26.05
2018-02-07T22:35:52.963Z,27.13
2018-02-07T22:38:20.509Z,25.88
2018-02-07T22:40:48.086Z,26.30
2018-02-07T22:43:15.588Z,25.27
2018-02-07T22:45:43.885Z,26.08
2018-02-07T22:48:11.402Z,25.02
2018-02-07T22:50:38.933Z,24.30
2018-02-07T22:53:06.449Z,23.10
2018-02-07T22:55:33.997Z,25.17
2018-02-07T22:58:02.368Z,24.58
2018-02-07T23:00:29.957Z,23.65
2018-02-07T23:02:58.238Z,23.45
2018-02-07T23:05:26.138Z,25.02
2018-02-07T23:07:53.658Z,24.75
2018-02-07T23:10:21.973Z,23.95
2018-02-07T23:12:49.570Z,27.08
2018-02-07T23:15:17.085Z,25.30
2018-02-07T23:17:44.654Z,25.48
2018-02-07T23:20:12.143Z,24.30
2018-02-07T23:22:39.727Z,25.60
2018-02-07T23:25:07.996Z,24.83
2018-02-07T23:27:35.525Z,24.73
2018-02-07T23:30:03.041Z,26.92
2018-02-07T23:32:30.573Z,26.40
2018-02-07T23:34:58.096Z,26.48
2018-02-07T23:37:25.687Z,27.02
2018-02-07T23:39:53.213Z,25.62
2018-02-07T23:42:20.784Z,26.48
2018-02-07T23:44:48.300Z,25.73
2018-02-07T23:47:15.816Z,25.30
2018-02-07T23:49:43.338Z,24.95
2018-02-07T23:52:10.846Z,23.85
2018-02-07T23:54:38.390Z,25.92
2018-02-07T23:57:05.903Z,26.75
2018-02-07T23:59:33.432Z,26.83
